sensor_id;sensor_type;location;lat;lon;timestamp;temperature;humidity
20921;DHT22;10620;52.472;21.028;2022-07-23T15:20:45;25.90;99.90
20921;DHT22;10620;52.472;21.028;2022-07-23T15:23:15;25.40;99.90
20921;DHT22;10620;52.472;21.028;2022-07-23T15:25:44;23.70;99.90
20921;DHT22;10620;52.472;21.028;2022-07-23T15:28:17;22.40;99.90
20921;DHT22;10620;52.472;21.028;2022-07-23T15:30:48;22.20;99.90
20921;DHT22;10620;52.472;21.028;2022-07-23T15:33:17;22.00;99.90
20921;DHT22;10620;52.472;21.028;2022-07-23T15:35:49;21.40;99.90
20921;DHT22;10620;52.472;21.028;2022-07-23T15:38:20;21.10;99.90
20921;DHT22;10620;52.472;21.028;2022-07-23T15:40:52;20.90;99.90
20921;DHT22;10620;52.472;21.028;2022-07-23T15:43:22;20.70;99.90
20921;DHT22;10620;52.472;21.028;2022-07-23T15:45:52;20.60;99.90
20921;DHT22;10620;52.472;21.028;2022-07-23T15:48:21;20.40;99.90
20921;DHT22;10620;52.472;21.028;2022-07-23T15:50:53;20.30;99.90
20921;DHT22;10620;52.472;21.028;2022-07-23T15:53:23;20.20;99.90
20921;DHT22;10620;52.472;21.028;2022-07-23T15:56:04;20.10;99.90
20921;DHT22;10620;52.472;21.028;2022-07-23T15:58:41;20.00;99.90
20921;DHT22;10620;52.472;21.028;2022-07-23T16:01:11;20.00;99.90
20921;DHT22;10620;52.472;21.028;2022-07-23T16:03:40;20.00;99.90
20921;DHT22;10620;52.472;21.028;2022-07-23T16:06:12;18.60;99.90
20921;DHT22;10620;52.472;21.028;2022-07-23T16:08:44;19.80;99.90
20921;DHT22;10620;52.472;21.028;2022-07-23T16:11:14;19.70;99.90
20921;DHT22;10620;52.472;21.028;2022-07-23T16:13:43;19.70;99.90
20921;DHT22;10620;52.472;21.028;2022-07-23T16:16:11;19.60;99.90
20921;DHT22;10620;52.472;21.028;2022-07-23T16:18:40;19.60;99.90
20921;DHT22;10620;52.472;21.028;2022-07-23T16:21:09;19.50;99.90
20921;DHT22;10620;52.472;21.028;2022-07-23T16:23:43;19.30;99.90
20921;DHT22;10620;52.472;21.028;2022-07-23T16:26:12;19.30;99.90
20921;DHT22;10620;52.472;21.028;2022-07-23T16:28:43;19.20;99.90
20921;DHT22;10620;52.472;21.028;2022-07-23T16:31:11;19.30;99.90
20921;DHT22;10620;52.472;21.028;2022-07-23T16:33:41;19.20;99.90
20921;DHT22;10620;52.472;21.028;2022-07-23T16:36:10;19.20;99.90
20921;DHT22;10620;52.472;21.028;2022-07-23T16:38:39;19.20;99.90
20921;DHT22;10620;52.472;21.028;2022-07-23T16:41:09;19.30;99.90
20921;DHT22;10620;52.472;21.028;2022-07-23T16:43:38;19.30;99.90
20921;DHT22;10620;52.472;21.028;2022-07-23T16:46:06;19.30;99.90
20921;DHT22;10620;52.472;21.028;2022-07-23T16:48:35;19.20;99.90
20921;DHT22;10620;52.472;21.028;2022-07-23T16:51:05;19.30;99.90
20921;DHT22;10620;52.472;21.028;2022-07-23T16:53:34;19.30;99.90
20921;DHT22;10620;52.472;21.028;2022-07-23T16:56:03;19.30;99.90
20921;DHT22;10620;52.472;21.028;2022-07-23T16:58:34;19.20;99.90
20921;DHT22;10620;52.472;21.028;2022-07-23T17:01:03;19.20;99.90
20921;DHT22;10620;52.472;21.028;2022-07-23T17:03:31;19.30;99.90
20921;DHT22;10620;52.472;21.028;2022-07-23T17:06:00;19.40;99.90
20921;DHT22;10620;52.472;21.028;2022-07-23T17:08:29;19.50;99.90
20921;DHT22;10620;52.472;21.028;2022-07-23T17:10:58;19.40;99.90
20921;DHT22;10620;52.472;21.028;2022-07-23T17:13:27;19.40;99.90
20921;DHT22;10620;52.472;21.028;2022-07-23T17:15:57;19.40;99.90
20921;DHT22;10620;52.472;21.028;2022-07-23T17:18:26;19.50;99.90
20921;DHT22;10620;52.472;21.028;2022-07-23T17:20:55;19.60;99.90
20921;DHT22;10620;52.472;21.028;2022-07-23T17:23:27;19.60;99.90
20921;DHT22;10620;52.472;21.028;2022-07-23T17:25:57;19.70;99.90
20921;DHT22;10620;52.472;21.028;2022-07-23T17:28:27;19.70;99.90
20921;DHT22;10620;52.472;21.028;2022-07-23T17:30:58;19.70;99.90
20921;DHT22;10620;52.472;21.028;2022-07-23T17:33:27;20.60;99.90
20921;DHT22;10620;52.472;21.028;2022-07-23T17:35:55;19.40;99.90
20921;DHT22;10620;52.472;21.028;2022-07-23T17:38:24;19.70;99.90
20921;DHT22;10620;52.472;21.028;2022-07-23T17:40:53;19.70;99.90
20921;DHT22;10620;52.472;21.028;2022-07-23T17:43:22;19.80;99.90
20921;DHT22;10620;52.472;21.028;2022-07-23T17:45:50;20.00;99.90
20921;DHT22;10620;52.472;21.028;2022-07-23T17:48:21;20.10;99.90
20921;DHT22;10620;52.472;21.028;2022-07-23T17:50:49;20.20;99.90
20921;DHT22;10620;52.472;21.028;2022-07-23T17:53:21;20.30;99.90
20921;DHT22;10620;52.472;21.028;2022-07-23T17:55:50;20.30;99.90
20921;DHT22;10620;52.472;21.028;2022-07-23T17:58:19;20.30;99.90
20921;DHT22;10620;52.472;21.028;2022-07-23T18:00:48;20.30;99.90
20921;DHT22;10620;52.472;21.028;2022-07-23T18:03:17;20.20;99.90
20921;DHT22;10620;52.472;21.028;2022-07-23T18:05:47;20.10;99.90
20921;DHT22;10620;52.472;21.028;2022-07-23T18:08:16;19.90;99.90
20921;DHT22;10620;52.472;21.028;2022-07-23T18:10:45;19.80;99.90
20921;DHT22;10620;52.472;21.028;2022-07-23T18:13:13;19.60;99.90
20921;DHT22;10620;52.472;21.028;2022-07-23T18:15:42;19.50;99.90
20921;DHT22;10620;52.472;21.028;2022-07-23T18:18:11;19.40;99.90
20921;DHT22;10620;52.472;21.028;2022-07-23T18:20:39;19.20;99.90
20921;DHT22;10620;52.472;21.028;2022-07-23T18:23:11;19.10;99.90
20921;DHT22;10620;52.472;21.028;2022-07-23T18:25:40;19.00;99.90
20921;DHT22;10620;52.472;21.028;2022-07-23T18:28:09;18.90;99.90
20921;DHT22;10620;52.472;21.028;2022-07-23T18:30:38;18.80;99.90
20921;DHT22;10620;52.472;21.028;2022-07-23T18:33:07;18.60;99.90
20921;DHT22;10620;52.472;21.028;2022-07-23T18:35:35;18.60;99.90
20921;DHT22;10620;52.472;21.028;2022-07-23T18:38:04;18.40;99.90
20921;DHT22;10620;52.472;21.028;2022-07-23T18:40:35;18.40;99.90
20921;DHT22;10620;52.472;21.028;2022-07-23T18:43:06;18.40;99.90
20921;DHT22;10620;52.472;21.028;2022-07-23T18:45:35;18.30;99.90
20921;DHT22;10620;52.472;21.028;2022-07-23T18:48:04;18.40;99.90
20921;DHT22;10620;52.472;21.028;2022-07-23T18:50:33;18.40;99.90
20921;DHT22;10620;52.472;21.028;2022-07-23T18:53:04;18.50;99.90
20921;DHT22;10620;52.472;21.028;2022-07-23T18:55:34;18.40;99.90
20921;DHT22;10620;52.472;21.028;2022-07-23T18:58:04;18.40;99.90
20921;DHT22;10620;52.472;21.028;2022-07-23T19:00:34;18.40;99.90
20921;DHT22;10620;52.472;21.028;2022-07-23T19:03:03;18.40;99.90
20921;DHT22;10620;52.472;21.028;2022-07-23T19:05:34;18.40;99.90
20921;DHT22;10620;52.472;21.028;2022-07-23T19:08:03;18.40;99.90
20921;DHT22;10620;52.472;21.028;2022-07-23T19:10:34;18.40;99.90
20921;DHT22;10620;52.472;21.028;2022-07-23T19:13:03;18.40;99.90
20921;DHT22;10620;52.472;21.028;2022-07-23T19:15:33;18.40;99.90
20921;DHT22;10620;52.472;21.028;2022-07-23T19:18:02;18.40;99.90
20921;DHT22;10620;52.472;21.028;2022-07-23T19:20:31;18.30;99.90
20921;DHT22;10620;52.472;21.028;2022-07-23T19:23:00;18.30;99.90
20921;DHT22;10620;52.472;21.028;2022-07-23T19:25:29;18.30;99.90
20921;DHT22;10620;52.472;21.028;2022-07-23T19:27:59;18.30;99.90
20921;DHT22;10620;52.472;21.028;2022-07-23T19:30:28;18.30;99.90
20921;DHT22;10620;52.472;21.028;2022-07-23T19:32:57;18.40;99.90
20921;DHT22;10620;52.472;21.028;2022-07-23T19:35:28;18.30;99.90
20921;DHT22;10620;52.472;21.028;2022-07-23T19:37:57;18.30;99.90
20921;DHT22;10620;52.472;21.028;2022-07-23T19:40:26;18.30;99.90
20921;DHT22;10620;52.472;21.028;2022-07-23T19:42:56;18.30;99.90
20921;DHT22;10620;52.472;21.028;2022-07-23T19:45:26;18.30;99.90
20921;DHT22;10620;52.472;21.028;2022-07-23T19:47:55;18.30;99.90
20921;DHT22;10620;52.472;21.028;2022-07-23T19:50:24;18.30;99.90
20921;DHT22;10620;52.472;21.028;2022-07-23T19:52:55;18.30;99.90
20921;DHT22;10620;52.472;21.028;2022-07-23T19:55:24;18.20;99.90
20921;DHT22;10620;52.472;21.028;2022-07-23T19:57:53;18.20;99.90
20921;DHT22;10620;52.472;21.028;2022-07-23T20:00:22;18.10;99.90
20921;DHT22;10620;52.472;21.028;2022-07-23T20:02:53;18.00;99.90
20921;DHT22;10620;52.472;21.028;2022-07-23T20:05:22;18.00;99.90
20921;DHT22;10620;52.472;21.028;2022-07-23T20:07:51;18.00;99.90
20921;DHT22;10620;52.472;21.028;2022-07-23T20:10:20;18.00;99.90
20921;DHT22;10620;52.472;21.028;2022-07-23T20:12:49;18.00;99.90
20921;DHT22;10620;52.472;21.028;2022-07-23T20:15:20;18.00;99.90
20921;DHT22;10620;52.472;21.028;2022-07-23T20:17:49;18.00;99.90
20921;DHT22;10620;52.472;21.028;2022-07-23T20:20:19;18.00;99.90
20921;DHT22;10620;52.472;21.028;2022-07-23T20:22:48;18.00;99.90
20921;DHT22;10620;52.472;21.028;2022-07-23T20:25:17;18.10;99.90
20921;DHT22;10620;52.472;21.028;2022-07-23T20:27:46;18.00;99.90
20921;DHT22;10620;52.472;21.028;2022-07-23T20:30:15;18.00;99.90
20921;DHT22;10620;52.472;21.028;2022-07-23T20:32:44;18.10;99.90
20921;DHT22;10620;52.472;21.028;2022-07-23T20:35:12;18.00;99.90
20921;DHT22;10620;52.472;21.028;2022-07-23T20:37:43;18.00;99.90
20921;DHT22;10620;52.472;21.028;2022-07-23T20:40:11;18.00;99.90
20921;DHT22;10620;52.472;21.028;2022-07-23T20:42:40;18.00;99.90
20921;DHT22;10620;52.472;21.028;2022-07-23T20:45:09;18.20;99.90
20921;DHT22;10620;52.472;21.028;2022-07-23T20:47:39;18.30;99.90
20921;DHT22;10620;52.472;21.028;2022-07-23T20:50:08;18.40;99.90
20921;DHT22;10620;52.472;21.028;2022-07-23T20:52:42;18.50;99.90
20921;DHT22;10620;52.472;21.028;2022-07-23T20:55:12;18.50;99.90
20921;DHT22;10620;52.472;21.028;2022-07-23T20:57:41;18.50;99.90
20921;DHT22;10620;52.472;21.028;2022-07-23T21:00:10;19.50;99.90
20921;DHT22;10620;52.472;21.028;2022-07-23T21:02:40;18.50;99.90
20921;DHT22;10620;52.472;21.028;2022-07-23T21:05:09;18.50;99.90
20921;DHT22;10620;52.472;21.028;2022-07-23T21:07:38;18.50;99.90
20921;DHT22;10620;52.472;21.028;2022-07-23T21:10:09;18.50;99.90
20921;DHT22;10620;52.472;21.028;2022-07-23T21:12:38;18.50;99.90
20921;DHT22;10620;52.472;21.028;2022-07-23T21:15:07;18.50;99.90
20921;DHT22;10620;52.472;21.028;2022-07-23T21:17:36;18.50;99.90
20921;DHT22;10620;52.472;21.028;2022-07-23T21:20:12;18.50;99.90
20921;DHT22;10620;52.472;21.028;2022-07-23T21:22:41;18.60;99.90
20921;DHT22;10620;52.472;21.028;2022-07-23T21:25:13;18.50;99.90
20921;DHT22;10620;52.472;21.028;2022-07-23T21:27:42;18.50;99.90
20921;DHT22;10620;52.472;21.028;2022-07-23T21:30:11;17.40;99.90
20921;DHT22;10620;52.472;21.028;2022-07-23T21:32:40;18.50;99.90
20921;DHT22;10620;52.472;21.028;2022-07-23T21:35:09;18.50;99.90
20921;DHT22;10620;52.472;21.028;2022-07-23T21:37:38;18.60;99.90
20921;DHT22;10620;52.472;21.028;2022-07-23T21:40:07;18.60;99.90
20921;DHT22;10620;52.472;21.028;2022-07-23T21:42:37;18.60;99.90
20921;DHT22;10620;52.472;21.028;2022-07-23T21:45:06;18.70;99.90
20921;DHT22;10620;52.472;21.028;2022-07-23T21:47:35;18.70;99.90
20921;DHT22;10620;52.472;21.028;2022-07-23T21:50:04;18.70;99.90
20921;DHT22;10620;52.472;21.028;2022-07-23T21:52:34;18.70;99.90
20921;DHT22;10620;52.472;21.028;2022-07-23T21:55:03;18.70;99.90
20921;DHT22;10620;52.472;21.028;2022-07-23T21:57:32;18.70;99.90
20921;DHT22;10620;52.472;21.028;2022-07-23T22:00:03;18.70;99.90
20921;DHT22;10620;52.472;21.028;2022-07-23T22:02:39;18.70;99.90
20921;DHT22;10620;52.472;21.028;2022-07-23T22:05:07;18.70;99.90
20921;DHT22;10620;52.472;21.028;2022-07-23T22:07:36;18.70;99.90
20921;DHT22;10620;52.472;21.028;2022-07-23T22:10:05;18.80;99.90
20921;DHT22;10620;52.472;21.028;2022-07-23T22:12:38;18.70;99.90
20921;DHT22;10620;52.472;21.028;2022-07-23T22:15:10;18.70;99.90
20921;DHT22;10620;52.472;21.028;2022-07-23T22:17:39;18.70;99.90
20921;DHT22;10620;52.472;21.028;2022-07-23T22:20:08;18.70;99.90
20921;DHT22;10620;52.472;21.028;2022-07-23T22:22:39;18.70;99.90
20921;DHT22;10620;52.472;21.028;2022-07-23T22:25:08;18.70;99.90
20921;DHT22;10620;52.472;21.028;2022-07-23T22:27:41;18.70;99.90
20921;DHT22;10620;52.472;21.028;2022-07-23T22:30:12;18.70;99.90
20921;DHT22;10620;52.472;21.028;2022-07-23T22:32:42;18.70;99.90
20921;DHT22;10620;52.472;21.028;2022-07-23T22:35:11;18.70;99.90
20921;DHT22;10620;52.472;21.028;2022-07-23T22:37:40;18.70;99.90
20921;DHT22;10620;52.472;21.028;2022-07-23T22:40:09;18.70;99.90
20921;DHT22;10620;52.472;21.028;2022-07-23T22:42:38;18.70;99.90
20921;DHT22;10620;52.472;21.028;2022-07-23T22:45:07;18.80;99.90
20921;DHT22;10620;52.472;21.028;2022-07-23T22:47:38;18.70;99.90
20921;DHT22;10620;52.472;21.028;2022-07-23T22:50:08;18.70;99.90
20921;DHT22;10620;52.472;21.028;2022-07-23T22:52:39;18.80;99.90
20921;DHT22;10620;52.472;21.028;2022-07-23T22:55:08;18.70;99.90
20921;DHT22;10620;52.472;21.028;2022-07-23T22:57:37;18.80;99.90
20921;DHT22;10620;52.472;21.028;2022-07-23T23:00:06;18.70;99.90
20921;DHT22;10620;52.472;21.028;2022-07-23T23:02:42;18.70;99.90
20921;DHT22;10620;52.472;21.028;2022-07-23T23:05:12;18.70;99.90
20921;DHT22;10620;52.472;21.028;2022-07-23T23:07:40;18.80;99.90
20921;DHT22;10620;52.472;21.028;2022-07-23T23:10:09;18.80;99.90
20921;DHT22;10620;52.472;21.028;2022-07-23T23:12:38;18.80;99.90
20921;DHT22;10620;52.472;21.028;2022-07-23T23:15:07;18.80;99.90
20921;DHT22;10620;52.472;21.028;2022-07-23T23:17:36;18.80;99.90
20921;DHT22;10620;52.472;21.028;2022-07-23T23:20:06;18.70;99.90
20921;DHT22;10620;52.472;21.028;2022-07-23T23:22:35;18.80;99.90
20921;DHT22;10620;52.472;21.028;2022-07-23T23:25:04;18.80;99.90
20921;DHT22;10620;52.472;21.028;2022-07-23T23:27:33;18.70;99.90
20921;DHT22;10620;52.472;21.028;2022-07-23T23:30:02;18.80;99.90
20921;DHT22;10620;52.472;21.028;2022-07-23T23:32:30;18.80;99.90
20921;DHT22;10620;52.472;21.028;2022-07-23T23:34:59;18.80;99.90
20921;DHT22;10620;52.472;21.028;2022-07-23T23:37:29;18.80;99.90
20921;DHT22;10620;52.472;21.028;2022-07-23T23:40:05;18.80;99.90
20921;DHT22;10620;52.472;21.028;2022-07-23T23:42:34;18.80;99.90
20921;DHT22;10620;52.472;21.028;2022-07-23T23:45:03;18.80;99.90
20921;DHT22;10620;52.472;21.028;2022-07-23T23:47:32;18.90;99.90
20921;DHT22;10620;52.472;21.028;2022-07-23T23:50:01;18.90;99.90
20921;DHT22;10620;52.472;21.028;2022-07-23T23:52:32;18.90;99.90
20921;DHT22;10620;52.472;21.028;2022-07-23T23:55:00;19.60;99.90
20921;DHT22;10620;52.472;21.028;2022-07-23T23:57:29;18.90;99.90
20921;DHT22;10620;52.472;21.028;2022-07-23T23:59:58;18.90;99.90
